createdAt,value
2023-06-02T00:00:40.371Z,14.21
2023-06-02T00:03:09.779Z,14.12
2023-06-02T00:05:39.281Z,14.08
2023-06-02T00:08:08.771Z,14.04
2023-06-02T00:10:37.113Z,14.01
2023-06-02T00:13:04.978Z,13.98
2023-06-02T00:15:33.085Z,13.89
2023-06-02T00:18:01.139Z,13.81
2023-06-02T00:20:29.073Z,13.75
2023-06-02T00:22:58.413Z,13.75
2023-06-02T00:25:27.713Z,13.67
2023-06-02T00:27:55.537Z,13.69
2023-06-02T00:30:23.552Z,13.63
2023-06-02T00:32:51.562Z,13.63
2023-06-02T00:35:19.580Z,13.67
2023-06-02T00:37:47.501Z,13.67
2023-06-02T00:40:17.847Z,13.65
2023-06-02T00:42:47.037Z,13.66
2023-06-02T00:45:15.936Z,13.70
2023-06-02T00:47:43.813Z,13.72
2023-06-02T00:50:12.430Z,13.70
2023-06-02T00:52:42.912Z,13.68
2023-06-02T00:55:11.047Z,13.68
2023-06-02T00:57:41.349Z,13.64
2023-06-02T01:00:13.135Z,13.64
2023-06-02T01:02:41.759Z,13.64
2023-06-02T01:05:11.923Z,13.65
2023-06-02T01:07:40.884Z,13.63
2023-06-02T01:10:10.753Z,13.60
2023-06-02T01:12:38.570Z,13.58
2023-06-02T01:15:07.750Z,13.53
2023-06-02T01:17:38.462Z,13.52
2023-06-02T01:20:11.594Z,13.50
2023-06-02T01:22:44.646Z,13.44
2023-06-02T01:25:24.437Z,13.25
2023-06-02T01:27:53.647Z,13.08
2023-06-02T01:30:21.987Z,12.97
2023-06-02T01:32:56.560Z,12.88
2023-06-02T01:35:28.879Z,12.86
2023-06-02T01:38:01.907Z,12.84
2023-06-02T01:40:32.202Z,12.76
2023-06-02T01:43:01.644Z,12.69
2023-06-02T01:45:32.094Z,12.63
2023-06-02T01:48:06.711Z,12.61
2023-06-02T01:50:35.629Z,12.59
2023-06-02T01:53:03.573Z,12.61
2023-06-02T01:55:32.724Z,12.64
2023-06-02T01:58:01.374Z,12.67
2023-06-02T02:00:29.675Z,12.66
2023-06-02T02:03:00.056Z,12.60
2023-06-02T02:05:27.843Z,12.54
2023-06-02T02:07:56.720Z,12.43
2023-06-02T02:10:24.445Z,12.37
2023-06-02T02:12:54.659Z,12.31
2023-06-02T02:15:22.646Z,12.22
2023-06-02T02:17:50.673Z,12.25
2023-06-02T02:20:22.771Z,12.25
2023-06-02T02:22:50.666Z,12.24
2023-06-02T02:25:18.439Z,12.14
2023-06-02T02:27:46.236Z,12.11
2023-06-02T02:30:15.704Z,12.04
2023-06-02T02:32:45.544Z,11.94
2023-06-02T02:35:13.799Z,11.90
2023-06-02T02:37:47.330Z,11.95
2023-06-02T02:40:21.198Z,11.89
2023-06-02T02:42:49.464Z,11.83
2023-06-02T02:45:19.346Z,11.80
2023-06-02T02:47:48.181Z,11.79
2023-06-02T02:50:16.105Z,11.79
2023-06-02T02:52:45.758Z,11.83
2023-06-02T02:55:16.769Z,11.83
2023-06-02T02:57:44.566Z,11.83
2023-06-02T03:00:14.690Z,11.82
2023-06-02T03:02:45.650Z,11.82
2023-06-02T03:05:14.486Z,11.68
2023-06-02T03:07:45.518Z,11.62
2023-06-02T03:10:13.776Z,11.60
2023-06-02T03:12:41.597Z,11.57
2023-06-02T03:15:10.427Z,11.57
2023-06-02T03:17:39.311Z,11.51
2023-06-02T03:20:11.282Z,11.55
2023-06-02T03:22:44.298Z,11.57
2023-06-02T03:25:14.329Z,11.65
2023-06-02T03:27:42.778Z,11.67
2023-06-02T03:30:11.829Z,11.70
2023-06-02T03:32:40.032Z,11.73
2023-06-02T03:35:10.967Z,11.74
2023-06-02T03:37:41.541Z,11.73
2023-06-02T03:40:11.398Z,11.75
2023-06-02T03:42:40.472Z,11.80
2023-06-02T03:45:10.746Z,11.84
2023-06-02T03:47:42.875Z,11.86
2023-06-02T03:50:15.337Z,11.82
2023-06-02T03:52:43.132Z,11.78
2023-06-02T03:55:11.496Z,11.73
2023-06-02T03:57:40.945Z,11.68
2023-06-02T04:00:11.889Z,11.65
2023-06-02T04:02:42.420Z,11.63
2023-06-02T04:05:13.634Z,11.67
2023-06-02T04:07:46.176Z,11.71
2023-06-02T04:10:13.976Z,11.73
2023-06-02T04:12:41.941Z,11.74
2023-06-02T04:15:10.808Z,11.79
2023-06-02T04:17:38.999Z,11.82
2023-06-02T04:20:08.299Z,11.85
2023-06-02T04:22:37.458Z,11.90
2023-06-02T04:25:07.988Z,11.95
2023-06-02T04:27:36.326Z,12.14
2023-06-02T04:30:05.652Z,12.12
2023-06-02T04:32:35.622Z,12.27
2023-06-02T04:35:03.964Z,12.24
2023-06-02T04:37:33.711Z,12.43
2023-06-02T04:40:07.209Z,12.46
2023-06-02T04:42:39.312Z,12.57
2023-06-02T04:45:12.684Z,12.53
2023-06-02T04:47:42.096Z,12.59
2023-06-02T04:50:10.937Z,12.68
2023-06-02T04:52:40.551Z,12.80
2023-06-02T04:55:10.862Z,12.93
2023-06-02T04:57:42.857Z,13.06
2023-06-02T05:00:12.506Z,13.17
2023-06-02T05:02:40.473Z,13.31
2023-06-02T05:05:10.114Z,13.40
2023-06-02T05:07:38.106Z,13.51
2023-06-02T05:10:06.845Z,13.65
2023-06-02T05:12:34.667Z,13.76
2023-06-02T05:15:07.367Z,13.81
2023-06-02T05:17:35.261Z,13.99
2023-06-02T05:20:05.314Z,14.02
2023-06-02T05:22:33.228Z,14.10
2023-06-02T05:25:01.179Z,14.19
2023-06-02T05:27:29.455Z,14.33
2023-06-02T05:29:57.530Z,14.45
2023-06-02T05:32:28.833Z,14.56
2023-06-02T05:34:57.620Z,14.67
2023-06-02T05:37:25.528Z,14.72
2023-06-02T05:39:54.978Z,14.81
2023-06-02T05:42:25.214Z,14.88
2023-06-02T05:44:53.733Z,14.95
2023-06-02T05:47:21.719Z,15.02
2023-06-02T05:49:52.614Z,15.10
2023-06-02T05:52:21.593Z,15.18
2023-06-02T05:54:50.054Z,15.28
2023-06-02T05:57:18.505Z,15.36
2023-06-02T05:59:47.064Z,15.44
2023-06-02T06:02:17.570Z,15.53
2023-06-02T06:04:45.383Z,15.61
2023-06-02T06:07:14.784Z,15.70
2023-06-02T06:09:45.326Z,15.78
2023-06-02T06:12:13.294Z,15.89
2023-06-02T06:14:41.297Z,15.97
2023-06-02T06:17:09.186Z,16.03
2023-06-02T06:19:36.983Z,16.12
2023-06-02T06:22:05.017Z,16.17
2023-06-02T06:24:36.044Z,16.25
2023-06-02T06:27:04.199Z,16.33
2023-06-02T06:29:32.587Z,16.41
2023-06-02T06:32:02.160Z,16.57
2023-06-02T06:34:30.393Z,16.66
2023-06-02T06:36:59.141Z,16.73
2023-06-02T06:39:29.947Z,16.83
2023-06-02T06:41:59.189Z,16.92
2023-06-02T06:44:37.662Z,16.97
2023-06-02T06:47:07.353Z,17.00
2023-06-02T06:49:35.860Z,17.06
2023-06-02T06:52:03.658Z,17.12
2023-06-02T06:54:31.818Z,17.23
2023-06-02T06:57:00.931Z,17.32
2023-06-02T06:59:28.786Z,17.38
2023-06-02T07:01:59.087Z,17.49
2023-06-02T07:04:26.972Z,17.53
2023-06-02T07:06:55.344Z,17.68
2023-06-02T07:09:24.944Z,17.76
2023-06-02T07:11:52.737Z,17.79
2023-06-02T07:14:21.872Z,17.81
2023-06-02T07:16:53.942Z,17.92
2023-06-02T07:19:22.167Z,17.97
2023-06-02T07:21:50.152Z,18.03
2023-06-02T07:24:18.054Z,18.09
2023-06-02T07:26:46.198Z,18.19
2023-06-02T07:29:15.958Z,18.32
2023-06-02T07:31:45.662Z,18.46
2023-06-02T07:34:13.505Z,18.54
2023-06-02T07:36:41.250Z,18.63
2023-06-02T07:39:09.014Z,18.71
2023-06-02T07:41:36.792Z,18.82
2023-06-02T07:44:04.579Z,18.91
2023-06-02T07:46:32.478Z,19.03
2023-06-02T07:49:05.097Z,19.13
2023-06-02T07:51:32.877Z,19.23
2023-06-02T07:54:01.039Z,19.32
2023-06-02T07:56:28.856Z,19.44
2023-06-02T07:58:56.777Z,19.57
2023-06-02T08:01:24.709Z,19.68
2023-06-02T08:03:55.055Z,19.80
2023-06-02T08:06:26.898Z,19.90
2023-06-02T08:08:55.857Z,19.98
2023-06-02T08:11:24.577Z,20.07
2023-06-02T08:13:52.330Z,20.18
2023-06-02T08:16:28.720Z,20.25
2023-06-02T08:19:00.004Z,20.36
2023-06-02T08:21:29.257Z,20.35
2023-06-02T08:23:56.986Z,20.45
2023-06-02T08:26:25.031Z,20.54
2023-06-02T08:28:54.229Z,20.68
2023-06-02T08:31:24.026Z,20.79
2023-06-02T08:33:53.305Z,20.90
2023-06-02T08:36:21.617Z,21.01
2023-06-02T08:38:53.062Z,21.12
2023-06-02T08:41:21.630Z,21.19
2023-06-02T08:43:50.432Z,21.26
2023-06-02T08:46:18.354Z,21.29
2023-06-02T08:48:50.970Z,21.26
2023-06-02T08:51:23.467Z,21.38
2023-06-02T08:53:52.968Z,21.58
2023-06-02T08:56:20.986Z,21.71
2023-06-02T08:58:49.632Z,21.85
2023-06-02T09:01:17.625Z,22.02
2023-06-02T09:03:48.748Z,22.23
2023-06-02T09:06:23.475Z,22.51
2023-06-02T09:09:00.064Z,22.40
2023-06-02T09:11:28.588Z,22.55
2023-06-02T09:13:57.053Z,22.62
2023-06-02T09:16:25.396Z,22.90
2023-06-02T09:18:58.514Z,23.25
2023-06-02T09:21:28.352Z,23.47
2023-06-02T09:24:12.226Z,23.75
2023-06-02T09:26:50.561Z,24.06
2023-06-02T09:29:19.988Z,24.29
2023-06-02T09:31:50.495Z,24.52
2023-06-02T09:34:19.431Z,24.72
2023-06-02T09:36:49.745Z,24.87
2023-06-02T09:39:33.262Z,25.16
2023-06-02T09:42:02.737Z,25.53
2023-06-02T09:44:30.547Z,25.79
2023-06-02T09:46:58.536Z,26.12
2023-06-02T09:49:26.699Z,26.28
2023-06-02T09:51:54.736Z,26.41
2023-06-02T09:54:22.523Z,26.60
2023-06-02T09:56:51.996Z,26.73
2023-06-02T09:59:21.318Z,26.90
2023-06-02T10:01:51.485Z,26.70
2023-06-02T10:04:19.288Z,26.20
2023-06-02T10:07:07.450Z,26.40
2023-06-02T10:09:45.628Z,26.75
2023-06-02T10:12:32.040Z,27.01
2023-06-02T10:15:26.573Z,27.01
2023-06-02T10:18:06.809Z,27.33
2023-06-02T10:20:38.790Z,27.58
2023-06-02T10:23:23.698Z,27.75
2023-06-02T10:26:06.733Z,28.23
2023-06-02T10:28:35.906Z,28.26
2023-06-02T10:31:09.575Z,28.03
2023-06-02T10:33:45.424Z,28.39
2023-06-02T10:36:14.822Z,28.14
2023-06-02T10:38:42.946Z,28.50
2023-06-02T10:41:10.851Z,28.67
2023-06-02T10:43:38.612Z,29.03
2023-06-02T10:46:21.740Z,28.91
2023-06-02T10:48:51.228Z,28.62
2023-06-02T10:51:19.068Z,29.04
2023-06-02T10:54:19.333Z,28.81
2023-06-02T10:56:48.179Z,28.02
2023-06-02T10:59:37.160Z,28.41
2023-06-02T11:02:08.934Z,28.75
2023-06-02T11:04:37.575Z,29.08
2023-06-02T11:07:19.401Z,28.86
2023-06-02T11:09:50.727Z,29.14
2023-06-02T11:12:18.629Z,29.22
2023-06-02T11:15:17.427Z,29.41
2023-06-02T11:17:49.620Z,29.97
2023-06-02T11:20:18.480Z,29.61
2023-06-02T11:22:47.477Z,29.00
2023-06-02T11:25:18.441Z,28.60
2023-06-02T11:27:48.419Z,28.68
2023-06-02T11:30:18.945Z,28.26
2023-06-02T11:32:50.337Z,27.75
2023-06-02T11:35:21.598Z,27.33
2023-06-02T11:38:03.698Z,27.55
2023-06-02T11:40:31.706Z,27.02
2023-06-02T11:42:59.815Z,26.54
2023-06-02T11:45:28.898Z,25.62
2023-06-02T11:48:03.360Z,25.75
2023-06-02T11:50:31.644Z,25.75
2023-06-02T11:52:59.982Z,26.06
2023-06-02T11:55:29.402Z,26.07
2023-06-02T11:58:23.653Z,26.49
2023-06-02T12:00:52.651Z,26.48
2023-06-02T12:03:28.015Z,26.38
2023-06-02T12:05:56.630Z,26.07
2023-06-02T12:08:27.782Z,26.10
2023-06-02T12:10:59.052Z,26.85
2023-06-02T12:13:28.812Z,27.55
2023-06-02T12:15:57.625Z,27.38
2023-06-02T12:18:30.859Z,28.07
2023-06-02T12:21:00.449Z,28.75
2023-06-02T12:23:43.466Z,29.38
2023-06-02T12:26:11.343Z,29.02
2023-06-02T12:28:40.515Z,29.03
2023-06-02T12:31:08.532Z,29.64
2023-06-02T12:33:41.281Z,29.91
2023-06-02T12:36:11.175Z,30.54
2023-06-02T12:38:39.277Z,31.00
2023-06-02T12:41:12.521Z,31.09
2023-06-02T12:43:41.052Z,30.66
2023-06-02T12:46:09.352Z,30.60
2023-06-02T12:48:39.709Z,30.29
2023-06-02T12:51:09.074Z,30.90
2023-06-02T12:53:39.240Z,31.28
2023-06-02T12:56:07.856Z,31.83
2023-06-02T12:58:36.094Z,32.12
2023-06-02T13:01:04.664Z,32.27
2023-06-02T13:03:35.018Z,31.92
2023-06-02T13:06:06.660Z,32.24
2023-06-02T13:08:35.611Z,32.43
2023-06-02T13:11:03.353Z,32.74
2023-06-02T13:13:31.143Z,32.53
2023-06-02T13:15:59.331Z,32.22
2023-06-02T13:18:27.165Z,32.07
2023-06-02T13:20:55.941Z,32.31
2023-06-02T13:23:25.549Z,32.37
2023-06-02T13:25:53.565Z,31.51
2023-06-02T13:28:21.637Z,31.48
2023-06-02T13:30:49.543Z,32.02
2023-06-02T13:33:17.288Z,32.37
2023-06-02T13:35:53.963Z,31.71
2023-06-02T13:38:21.731Z,31.77
2023-06-02T13:40:51.649Z,31.99
2023-06-02T13:43:19.556Z,32.06
2023-06-02T13:45:48.188Z,31.95
2023-06-02T13:48:17.664Z,31.42
2023-06-02T13:50:45.472Z,31.18
2023-06-02T13:53:13.326Z,31.12
2023-06-02T13:55:41.146Z,30.80
2023-06-02T13:58:10.269Z,31.04
2023-06-02T14:00:38.219Z,30.64
2023-06-02T14:03:06.147Z,30.65
2023-06-02T14:05:33.919Z,30.72
2023-06-02T14:08:02.839Z,30.53
2023-06-02T14:10:30.650Z,30.45
2023-06-02T14:12:58.409Z,29.59
2023-06-02T14:15:27.714Z,29.64
2023-06-02T14:17:55.518Z,29.41
2023-06-02T14:20:24.397Z,28.80
2023-06-02T14:22:52.278Z,29.03
2023-06-02T14:25:20.068Z,29.15
2023-06-02T14:27:47.917Z,28.93
2023-06-02T14:30:16.070Z,29.01
2023-06-02T14:32:45.222Z,28.10
2023-06-02T14:35:12.985Z,28.46
2023-06-02T14:37:40.819Z,28.39
2023-06-02T14:40:09.724Z,28.60
2023-06-02T14:42:37.712Z,28.77
2023-06-02T14:45:06.235Z,28.82
2023-06-02T14:47:34.543Z,28.96
2023-06-02T14:50:04.308Z,28.93
2023-06-02T14:52:32.104Z,28.80
2023-06-02T14:54:59.933Z,28.58
2023-06-02T14:57:29.049Z,28.27
2023-06-02T14:59:56.829Z,27.76
2023-06-02T15:02:24.645Z,27.42
2023-06-02T15:04:53.127Z,27.56
2023-06-02T15:07:22.651Z,27.85
2023-06-02T15:09:50.488Z,27.88
2023-06-02T15:12:18.896Z,27.89
2023-06-02T15:14:47.715Z,27.75
2023-06-02T15:17:15.920Z,27.55
2023-06-02T15:19:44.215Z,27.63
2023-06-02T15:22:12.263Z,27.66
2023-06-02T15:24:41.661Z,27.61
2023-06-02T15:27:09.776Z,27.23
2023-06-02T15:29:37.549Z,27.27
2023-06-02T15:32:06.036Z,27.25
2023-06-02T15:34:33.918Z,27.26
2023-06-02T15:37:01.661Z,26.95
2023-06-02T15:39:29.413Z,26.96
2023-06-02T15:41:58.599Z,26.53
2023-06-02T15:44:28.767Z,26.52
2023-06-02T15:46:56.705Z,26.62
2023-06-02T15:49:26.557Z,26.56
2023-06-02T15:51:54.605Z,26.48
2023-06-02T15:54:22.702Z,26.71
2023-06-02T15:56:53.398Z,26.74
2023-06-02T15:59:22.908Z,26.63
2023-06-02T16:01:51.941Z,26.96
2023-06-02T16:04:19.933Z,27.15
2023-06-02T16:06:47.785Z,27.64
2023-06-02T16:09:17.679Z,27.58
2023-06-02T16:11:45.437Z,27.79
2023-06-02T16:14:13.750Z,27.94
2023-06-02T16:16:43.004Z,28.22
2023-06-02T16:19:10.895Z,28.10
2023-06-02T16:21:39.393Z,28.09
2023-06-02T16:24:07.266Z,27.86
2023-06-02T16:26:36.321Z,27.65
2023-06-02T16:29:04.182Z,27.82
2023-06-02T16:31:32.130Z,28.16
2023-06-02T16:34:01.237Z,28.22
2023-06-02T16:36:29.062Z,28.67
2023-06-02T16:38:56.842Z,28.79
2023-06-02T16:41:24.878Z,29.14
2023-06-02T16:43:52.656Z,29.81
2023-06-02T16:46:21.497Z,29.75
2023-06-02T16:48:49.655Z,29.79
2023-06-02T16:51:18.824Z,29.05
2023-06-02T16:53:46.621Z,28.17
2023-06-02T16:56:14.412Z,28.40
2023-06-02T16:58:42.259Z,28.91
2023-06-02T17:01:10.063Z,29.24
2023-06-02T17:03:39.960Z,28.95
2023-06-02T17:06:08.362Z,28.31
2023-06-02T17:08:37.493Z,28.66
2023-06-02T17:11:05.579Z,29.01
2023-06-02T17:13:34.143Z,29.69
2023-06-02T17:16:02.159Z,30.53
2023-06-02T17:18:30.035Z,32.09
2023-06-02T17:20:57.772Z,33.38
2023-06-02T17:23:25.490Z,33.80
2023-06-02T17:25:54.631Z,33.56
2023-06-02T17:28:22.383Z,33.36
2023-06-02T17:30:51.640Z,32.36
2023-06-02T17:33:20.464Z,30.18
2023-06-02T17:35:48.635Z,29.02
2023-06-02T17:38:16.732Z,28.76
2023-06-02T17:40:45.364Z,28.06
2023-06-02T17:43:14.522Z,27.45
2023-06-02T17:45:42.284Z,26.92
2023-06-02T17:48:10.069Z,26.31
2023-06-02T17:50:37.890Z,25.54
2023-06-02T17:53:05.653Z,25.25
2023-06-02T17:55:33.588Z,24.93
2023-06-02T17:58:03.855Z,24.62
2023-06-02T18:00:33.019Z,24.27
2023-06-02T18:03:01.459Z,24.02
2023-06-02T18:05:29.593Z,23.78
2023-06-02T18:07:58.099Z,23.73
2023-06-02T18:10:27.987Z,23.39
2023-06-02T18:12:59.226Z,22.98
2023-06-02T18:15:27.446Z,22.87
2023-06-02T18:17:56.757Z,22.68
2023-06-02T18:20:24.601Z,22.49
2023-06-02T18:22:53.157Z,22.42
2023-06-02T18:25:21.042Z,22.28
2023-06-02T18:27:48.789Z,22.15
2023-06-02T18:30:16.547Z,22.09
2023-06-02T18:32:44.363Z,21.92
2023-06-02T18:35:13.527Z,21.87
2023-06-02T18:37:41.310Z,21.73
2023-06-02T18:40:10.379Z,21.64
2023-06-02T18:42:38.710Z,21.55
2023-06-02T18:45:07.385Z,21.46
2023-06-02T18:47:35.201Z,21.28
2023-06-02T18:50:04.190Z,21.17
2023-06-02T18:52:35.371Z,21.01
2023-06-02T18:55:03.397Z,20.97
2023-06-02T18:57:31.218Z,20.91
2023-06-02T18:59:59.127Z,20.92
2023-06-02T19:02:27.161Z,20.80
2023-06-02T19:04:54.948Z,20.72
2023-06-02T19:07:23.093Z,20.63
2023-06-02T19:09:52.248Z,20.50
2023-06-02T19:12:20.084Z,20.37
2023-06-02T19:14:47.813Z,20.32
2023-06-02T19:17:15.807Z,20.22
2023-06-02T19:19:43.564Z,20.24
2023-06-02T19:22:12.340Z,20.16
2023-06-02T19:24:40.935Z,20.10
2023-06-02T19:27:10.252Z,20.01
2023-06-02T19:29:38.095Z,20.01
2023-06-02T19:32:06.940Z,19.94
2023-06-02T19:34:34.755Z,19.91
2023-06-02T19:37:02.491Z,19.87
2023-06-02T19:42:18.390Z,19.70
2023-06-02T19:44:48.464Z,19.55
2023-06-02T19:47:16.409Z,19.52
2023-06-02T19:49:44.510Z,19.51
2023-06-02T19:52:12.366Z,19.51
2023-06-02T19:54:41.697Z,19.34
2023-06-02T19:57:09.472Z,19.36
2023-06-02T19:59:38.716Z,19.35
2023-06-02T20:02:10.114Z,19.18
2023-06-02T20:04:40.902Z,19.12
2023-06-02T20:07:11.742Z,19.13
2023-06-02T20:09:42.477Z,19.07
2023-06-02T20:12:10.265Z,19.04
2023-06-02T20:14:40.635Z,18.89
2023-06-02T20:17:08.500Z,18.82
2023-06-02T20:19:36.478Z,18.73
2023-06-02T20:22:06.503Z,18.56
2023-06-02T20:24:34.196Z,18.51
2023-06-02T20:27:05.315Z,18.51
2023-06-02T20:29:35.348Z,18.42
2023-06-02T20:32:04.855Z,18.26
2023-06-02T20:34:32.797Z,18.25
2023-06-02T20:37:00.690Z,18.22
2023-06-02T20:39:30.624Z,18.20
2023-06-02T20:41:58.386Z,18.16
2023-06-02T20:44:26.535Z,18.10
2023-06-02T20:46:54.288Z,18.04
2023-06-02T20:49:23.483Z,18.05
2023-06-02T20:51:51.396Z,17.98
2023-06-02T20:54:21.162Z,17.99
2023-06-02T20:56:49.041Z,18.01
2023-06-02T21:00:06.560Z,17.80
2023-06-02T21:02:34.538Z,17.87
2023-06-02T21:05:03.812Z,17.86
2023-06-02T21:07:31.558Z,17.85
2023-06-02T21:09:59.325Z,17.79
2023-06-02T21:12:27.052Z,17.75
2023-06-02T21:14:54.813Z,17.72
2023-06-02T21:17:22.581Z,17.69
2023-06-02T21:19:50.646Z,17.65
2023-06-02T21:22:19.727Z,17.61
2023-06-02T21:24:47.494Z,17.61
2023-06-02T21:27:16.010Z,17.57
2023-06-02T21:29:44.108Z,17.52
2023-06-02T21:32:11.925Z,17.43
2023-06-02T21:34:39.794Z,17.38
2023-06-02T21:37:08.785Z,17.36
2023-06-02T21:39:37.867Z,17.35
2023-06-02T21:42:06.232Z,17.30
2023-06-02T21:44:33.990Z,17.21
2023-06-02T21:47:01.918Z,17.19
2023-06-02T21:49:29.646Z,17.13
2023-06-02T21:51:57.408Z,17.05
2023-06-02T21:54:25.192Z,17.04
2023-06-02T21:56:54.304Z,17.00
2023-06-02T21:59:22.072Z,17.02
2023-06-02T22:01:49.838Z,16.98
2023-06-02T22:04:17.662Z,16.96
2023-06-02T22:06:45.769Z,16.90
2023-06-02T22:09:13.546Z,16.83
2023-06-02T22:11:41.312Z,16.80
2023-06-02T22:14:10.473Z,16.78
2023-06-02T22:16:38.362Z,16.79
2023-06-02T22:19:07.563Z,16.79
2023-06-02T22:21:55.069Z,16.77
2023-06-02T22:24:27.695Z,16.76
2023-06-02T22:26:56.090Z,16.68
2023-06-02T22:29:25.285Z,16.68
2023-06-02T22:31:53.456Z,16.70
2023-06-02T22:34:21.300Z,16.65
2023-06-02T22:36:49.131Z,16.65
2023-06-02T22:39:16.958Z,16.63
2023-06-02T22:41:45.161Z,16.62
2023-06-02T22:44:12.924Z,16.56
2023-06-02T22:46:42.058Z,16.48
2023-06-02T22:49:09.781Z,16.42
2023-06-02T22:51:39.380Z,16.38
2023-06-02T22:54:07.213Z,16.35
2023-06-02T22:56:34.997Z,16.32
2023-06-02T22:59:02.931Z,16.27
2023-06-02T23:01:30.799Z,16.24
2023-06-02T23:04:00.013Z,16.23
2023-06-02T23:06:27.856Z,16.23
2023-06-02T23:08:55.607Z,16.18
2023-06-02T23:11:23.592Z,16.16
2023-06-02T23:13:51.342Z,16.06
2023-06-02T23:16:19.098Z,16.04
2023-06-02T23:18:46.857Z,16.05
2023-06-02T23:21:16.641Z,16.02
2023-06-02T23:23:44.501Z,15.99
2023-06-02T23:26:15.323Z,16.00
2023-06-02T23:28:44.993Z,15.99
2023-06-02T23:31:12.809Z,15.96
2023-06-02T23:33:40.634Z,15.89
2023-06-02T23:36:09.003Z,15.75
2023-06-02T23:38:38.131Z,15.70
2023-06-02T23:41:06.302Z,15.71
2023-06-02T23:43:34.286Z,15.68
2023-06-02T23:46:02.075Z,15.64
2023-06-02T23:48:29.871Z,15.62
2023-06-02T23:50:57.727Z,15.59
2023-06-02T23:53:25.512Z,15.54
2023-06-02T23:55:54.665Z,15.48
2023-06-02T23:58:22.474Z,15.48
